Time;durP1;ratioP1;P1;durP2;ratioP2;P2;SDS_P1;SDS_P2;PMS_P1;PMS_P2;Temp;Humidity;BMP_temperature;BMP_pressure;BME280_temperature;BME280_humidity;BME280_pressure;Samples;Min_cycle;Max_cycle;Signal;HPM_P1;HPM_P2
2022/07/30 00:00:38;;;;;;;4.40;4.00;;;;;;;18.92;100.00;99091.81;5028991;28;20221;-80
2022/07/30 00:03:06;;;;;;;4.87;4.10;;;;;;;18.95;100.00;99086.97;5029546;28;20229;-80
2022/07/30 00:05:35;;;;;;;4.67;4.23;;;;;;;18.97;100.00;99089.50;5028426;28;20273;-80
2022/07/30 00:08:03;;;;;;;5.70;4.23;;;;;;;18.92;100.00;99092.66;5032358;28;20198;-80
2022/07/30 00:10:32;;;;;;;7.63;5.60;;;;;;;18.94;100.00;99087.13;5029586;28;20197;-80
2022/07/30 00:13:00;;;;;;;5.90;4.33;;;;;;;18.97;100.00;99087.66;5031673;28;20198;-80
2022/07/30 00:15:29;;;;;;;3.87;3.50;;;;;;;18.93;100.00;99091.66;5024731;28;20198;-80
2022/07/30 00:17:58;;;;;;;6.67;4.97;;;;;;;18.71;100.00;99095.59;5026476;28;20206;-80
2022/07/30 00:20:27;;;;;;;5.37;4.10;;;;;;;18.84;100.00;99093.41;5028615;28;20193;-80
2022/07/30 00:22:55;;;;;;;5.70;4.57;;;;;;;18.72;100.00;99085.72;5030691;28;20274;-80
2022/07/30 00:25:24;;;;;;;4.87;4.20;;;;;;;18.71;100.00;99082.19;5033212;28;20205;-79
2022/07/30 00:27:52;;;;;;;5.70;4.73;;;;;;;18.70;100.00;99082.34;5032545;28;20224;-79
2022/07/30 00:30:20;;;;;;;5.50;4.67;;;;;;;18.42;100.00;99074.28;5026433;28;20660;-80
2022/07/30 00:32:51;;;;;;;4.73;4.07;;;;;;;18.19;100.00;99075.69;5031674;28;20236;-80
2022/07/30 00:35:22;;;;;;;4.73;4.07;;;;;;;18.14;100.00;99076.13;5029375;28;20276;-80
2022/07/30 00:37:54;;;;;;;5.77;4.10;;;;;;;18.07;100.00;99076.88;5031867;28;20653;-80
2022/07/30 00:40:23;;;;;;;5.27;3.60;;;;;;;17.92;100.00;99081.88;5027931;28;20217;-80
2022/07/30 00:42:53;;;;;;;4.30;3.70;;;;;;;17.98;100.00;99075.94;5030589;28;20202;-80
2022/07/30 00:45:22;;;;;;;4.40;3.90;;;;;;;18.06;100.00;99085.94;5031772;28;20205;-80
2022/07/30 00:47:52;;;;;;;5.70;3.83;;;;;;;17.85;100.00;99083.44;5031818;28;20197;-80
2022/07/30 00:50:20;;;;;;;6.40;4.60;;;;;;;17.66;100.00;99090.53;5032855;28;20194;-80
2022/07/30 00:52:49;;;;;;;4.93;4.00;;;;;;;17.98;100.00;99078.63;5031686;28;20193;-80
2022/07/30 00:55:17;;;;;;;4.20;3.80;;;;;;;18.02;100.00;99075.47;5024193;28;20198;-80
2022/07/30 00:57:45;;;;;;;4.33;3.90;;;;;;;18.06;100.00;99065.31;5032394;28;20189;-79
2022/07/30 01:00:16;;;;;;;5.20;3.90;;;;;;;18.01;100.00;99070.28;5034409;28;20202;-79
2022/07/30 01:02:45;;;;;;;4.40;4.00;;;;;;;18.00;100.00;99056.03;5035540;28;20201;-80
2022/07/30 01:05:14;;;;;;;5.90;4.27;;;;;;;17.94;100.00;99063.81;5028822;28;20223;-79
2022/07/30 01:07:43;;;;;;;5.67;4.30;;;;;;;17.80;100.00;99057.09;5032171;28;20205;-80
2022/07/30 01:10:13;;;;;;;5.40;4.60;;;;;;;17.91;100.00;99059.59;5028086;28;20213;-80
2022/07/30 01:12:43;;;;;;;6.07;4.37;;;;;;;17.55;100.00;99055.84;5035276;28;20655;-80
2022/07/30 01:15:11;;;;;;;5.30;4.80;;;;;;;17.51;100.00;99057.16;5028359;28;20205;-79
2022/07/30 01:17:40;;;;;;;5.33;4.60;;;;;;;17.55;100.00;99065.72;5029942;28;20280;-79
2022/07/30 01:20:13;;;;;;;5.27;4.60;;;;;;;17.56;100.00;99062.91;5029489;28;20660;-80
2022/07/30 01:23:07;;;;;;;5.63;5.03;;;;;;;17.56;100.00;99062.06;5034946;28;20202;-80
2022/07/30 01:25:48;;;;;;;6.07;5.17;;;;;;;17.57;100.00;99071.81;5026800;28;20244;-79
2022/07/30 01:28:22;;;;;;;5.70;5.03;;;;;;;17.66;100.00;99073.59;5031189;28;20289;-80
2022/07/30 01:30:54;;;;;;;6.97;5.27;;;;;;;17.77;100.00;99070.78;5027062;28;20209;-80
2022/07/30 01:33:24;;;;;;;8.10;5.00;;;;;;;17.81;100.00;99063.28;5034626;28;20225;-79
2022/07/30 01:35:55;;;;;;;6.00;5.40;;;;;;;17.89;100.00;99066.94;5034854;28;20324;-80
2022/07/30 01:38:25;;;;;;;5.60;5.10;;;;;;;17.87;100.00;99065.41;5029811;28;20205;-79
2022/07/30 01:41:00;;;;;;;5.70;5.03;;;;;;;17.71;100.00;99074.88;5029225;28;20217;-79
2022/07/30 01:43:30;;;;;;;6.33;5.13;;;;;;;17.65;100.00;99074.59;5026917;28;20198;-80
2022/07/30 01:46:02;;;;;;;5.10;4.60;;;;;;;17.65;100.00;99078.09;5030328;28;20201;-80
2022/07/30 01:48:34;;;;;;;6.10;4.93;;;;;;;17.46;100.00;99088.88;5026202;28;20621;-80
2022/07/30 01:51:05;;;;;;;7.27;5.70;;;;;;;17.27;100.00;99089.72;5031269;28;20197;-80
2022/07/30 01:53:37;;;;;;;8.23;4.90;;;;;;;17.28;100.00;99090.59;5033587;28;20641;-80
2022/07/30 01:56:09;;;;;;;5.40;4.90;;;;;;;17.06;100.00;99089.03;5032880;28;20202;-79
2022/07/30 01:58:41;;;;;;;5.83;4.87;;;;;;;17.06;100.00;99089.88;5025206;28;20554;-80
2022/07/30 02:01:09;;;;;;;6.77;5.33;;;;;;;16.54;100.00;99097.28;5034611;28;20202;-80
2022/07/30 02:03:38;;;;;;;6.77;5.27;;;;;;;16.73;100.00;99104.50;5030083;28;20212;-79
2022/07/30 02:06:13;;;;;;;8.47;5.20;;;;;;;16.88;100.00;99102.25;5033517;28;20197;-80
2022/07/30 02:08:45;;;;;;;7.00;5.13;;;;;;;17.18;100.00;99101.31;5033228;28;20272;-80
2022/07/30 02:12:27;;;;;;;6.77;5.73;;;;;;;17.30;100.00;99102.84;5032506;28;20401;-80
2022/07/30 02:14:11;;;;;;;5.87;5.27;;;;;;;17.34;100.00;99098.03;5031600;28;20204;-79
2022/07/30 02:16:42;;;;;;;7.83;5.90;;;;;;;17.42;100.00;99100.84;5032963;28;20217;-80
2022/07/30 02:19:15;;;;;;;7.43;5.43;;;;;;;17.53;100.00;99099.84;5029165;28;20193;-80
2022/07/30 02:21:46;;;;;;;7.50;5.40;;;;;;;17.53;100.00;99100.69;5026395;28;20198;-80
2022/07/30 02:24:30;;;;;;;6.20;5.53;;;;;;;17.52;100.00;99092.81;5026083;28;20217;-80
2022/07/30 02:27:06;;;;;;;7.60;5.40;;;;;;;17.41;100.00;99088.47;5029963;28;20190;-80
2022/07/30 02:29:36;;;;;;;6.63;5.77;;;;;;;17.33;100.00;99085.66;5031354;28;20204;-80
2022/07/30 02:32:09;;;;;;;5.70;5.20;;;;;;;16.83;100.00;99099.19;5027158;28;20232;-80
2022/07/30 02:34:40;;;;;;;7.77;4.70;;;;;;;16.95;100.00;99102.56;5023430;28;20388;-80
2022/07/30 02:37:13;;;;;;;7.10;6.40;;;;;;;16.87;100.00;99109.44;5030295;28;20217;-80
2022/07/30 02:39:43;;;;;;;9.33;7.00;;;;;;;16.88;100.00;99104.94;5032292;28;20197;-79
2022/07/30 02:42:15;;;;;;;8.60;6.17;;;;;;;16.72;100.00;99102.84;5028489;28;20203;-79
2022/07/30 02:44:51;;;;;;;9.80;6.40;;;;;;;16.65;100.00;99101.66;5031138;28;20217;-80
2022/07/30 02:47:21;;;;;;;9.17;6.90;;;;;;;16.78;100.00;99104.94;5032660;28;20205;-80
2022/07/30 02:49:52;;;;;;;6.13;5.53;;;;;;;16.97;100.00;99109.47;5025730;28;20201;-80
2022/07/30 02:52:22;;;;;;;7.93;6.07;;;;;;;16.72;100.00;99116.19;5028208;28;20212;-79
2022/07/30 02:54:54;;;;;;;8.97;5.50;;;;;;;16.85;100.00;99113.25;5028030;28;20773;-79
2022/07/30 02:57:25;;;;;;;6.53;5.27;;;;;;;16.88;100.00;99103.09;5032018;28;20190;-80
2022/07/30 02:59:55;;;;;;;6.30;4.87;;;;;;;16.72;100.00;99096.63;5024320;28;20194;-79
2022/07/30 03:02:26;;;;;;;9.20;6.07;;;;;;;16.78;100.00;99093.38;5027611;28;20229;-80
2022/07/30 03:04:59;;;;;;;6.07;5.10;;;;;;;16.75;100.00;99099.88;5028919;28;20214;-80
2022/07/30 03:07:30;;;;;;;8.57;6.43;;;;;;;16.82;100.00;99101.00;5026324;28;20217;-80
2022/07/30 03:10:00;;;;;;;9.70;7.47;;;;;;;16.72;100.00;99097.47;5027085;28;20194;-80
2022/07/30 03:12:33;;;;;;;6.17;5.50;;;;;;;16.60;100.00;99111.94;5027105;28;20256;-79
2022/07/30 03:15:02;;;;;;;6.93;5.50;;;;;;;16.10;100.00;99116.38;5028433;28;20202;-80
2022/07/30 03:17:37;;;;;;;5.73;5.23;;;;;;;16.23;100.00;99131.22;5030211;28;20213;-79
2022/07/30 03:20:09;;;;;;;6.43;5.73;;;;;;;16.17;100.00;99134.44;5032953;28;20246;-80
2022/07/30 03:22:42;;;;;;;6.20;5.60;;;;;;;16.09;100.00;99136.06;5022177;28;20281;-79
2022/07/30 03:25:15;;;;;;;6.23;5.63;;;;;;;16.23;100.00;99133.91;5029735;28;20272;-80
2022/07/30 03:27:46;;;;;;;7.17;5.80;;;;;;;16.02;100.00;99141.97;5027683;28;20197;-80
2022/07/30 03:30:14;;;;;;;6.73;6.00;;;;;;;15.79;100.00;99143.09;5031496;28;20204;-80
2022/07/30 03:32:43;;;;;;;8.63;7.33;;;;;;;16.06;100.00;99147.88;5028620;28;20225;-79
2022/07/30 03:35:13;;;;;;;8.63;6.50;;;;;;;16.27;100.00;99153.19;5029757;28;20289;-80
2022/07/30 03:37:45;;;;;;;12.63;8.07;;;;;;;16.38;100.00;99163.78;5029588;28;20247;-79
2022/07/30 03:40:15;;;;;;;8.70;7.57;;;;;;;16.43;100.00;99158.88;5024882;28;20236;-80
2022/07/30 03:42:46;;;;;;;8.33;7.60;;;;;;;16.54;100.00;99157.94;5032871;28;20205;-79
2022/07/30 03:45:15;;;;;;;7.87;6.83;;;;;;;16.64;100.00;99157.97;5022988;28;20241;-80
2022/07/30 03:47:46;;;;;;;15.70;6.50;;;;;;;16.54;100.00;99150.75;5021963;28;20196;-79
2022/07/30 03:50:15;;;;;;;7.50;6.10;;;;;;;16.77;100.00;99147.88;5036190;28;20194;-80
2022/07/30 03:52:43;;;;;;;8.40;6.20;;;;;;;16.50;100.00;99140.44;5031775;28;20197;-80
2022/07/30 03:55:12;;;;;;;6.97;6.27;;;;;;;16.44;100.00;99141.84;5029498;28;20205;-80
2022/07/30 03:57:40;;;;;;;8.00;7.20;;;;;;;16.41;100.00;99150.16;5032818;28;20190;-80
2022/07/30 04:00:16;;;;;;;7.33;6.60;;;;;;;16.41;100.00;99147.47;5029700;28;20209;-80
2022/07/30 04:02:45;;;;;;;7.47;6.77;;;;;;;16.33;100.00;99144.63;5033662;28;20204;-80
2022/07/30 04:05:15;;;;;;;7.70;6.53;;;;;;;16.35;100.00;99147.16;5029759;28;20214;-80
2022/07/30 04:07:43;;;;;;;7.43;6.60;;;;;;;16.31;100.00;99154.63;5033423;28;20197;-80
2022/07/30 04:10:12;;;;;;;7.13;6.37;;;;;;;16.48;100.00;99155.78;5036347;28;20193;-80
2022/07/30 04:12:41;;;;;;;7.23;6.23;;;;;;;16.39;100.00;99153.91;5036244;28;20197;-80
2022/07/30 04:15:10;;;;;;;7.13;6.43;;;;;;;16.37;100.00;99158.56;5026091;28;20205;-80
2022/07/30 04:18:04;;;;;;;7.47;5.93;;;;;;;16.55;100.00;99159.63;5036236;28;20236;-80
2022/07/30 04:20:38;;;;;;;6.77;6.10;;;;;;;16.40;100.00;99151.09;5030459;28;20209;-79
2022/07/30 04:23:07;;;;;;;7.47;5.77;;;;;;;16.28;100.00;99155.72;5030686;28;20201;-79
2022/07/30 04:25:37;;;;;;;7.07;6.20;;;;;;;16.28;100.00;99163.72;5029659;28;20713;-79
2022/07/30 04:28:06;;;;;;;6.37;5.77;;;;;;;16.28;100.00;99163.72;5032394;28;20201;-80
2022/07/30 04:30:35;;;;;;;7.53;6.20;;;;;;;16.41;100.00;99165.34;4989804;28;20281;-80
2022/07/30 04:33:05;;;;;;;7.70;6.20;;;;;;;16.46;100.00;99160.44;4992214;28;20278;-80
2022/07/30 04:35:34;;;;;;;7.10;6.40;;;;;;;16.24;100.00;99165.00;4991233;28;20203;-80
2022/07/30 04:38:19;;;;;;;7.40;6.53;;;;;;;16.25;100.00;99176.53;4992742;28;20203;-80
2022/07/30 04:40:49;;;;;;;7.13;6.07;;;;;;;16.18;100.00;99176.22;4991745;28;20199;-80
2022/07/30 04:43:17;;;;;;;7.37;6.67;;;;;;;15.57;100.00;99184.09;4988001;28;20226;-80
2022/07/30 04:45:45;;;;;;;7.60;6.90;;;;;;;15.41;100.00;99203.22;4994345;28;20215;-80
2022/07/30 04:48:15;;;;;;;8.07;7.20;;;;;;;15.31;100.00;99204.09;5005875;28;20204;-78
2022/07/30 04:50:48;;;;;;;9.00;6.97;;;;;;;15.33;100.00;99216.34;5035795;28;20272;-79
2022/07/30 04:53:18;;;;;;;10.43;7.50;;;;;;;15.29;100.00;99222.91;5032635;28;20756;-80
2022/07/30 04:55:49;;;;;;;8.77;7.70;;;;;;;15.61;100.00;99233.63;5035554;28;20276;-79
2022/07/30 04:58:20;;;;;;;10.43;8.20;;;;;;;15.58;100.00;99238.34;5028567;28;20273;-80
2022/07/30 05:00:50;;;;;;;11.07;7.90;;;;;;;15.91;100.00;99237.34;5024879;28;20293;-80
2022/07/30 05:03:22;;;;;;;11.77;8.63;;;;;;;16.15;100.00;99235.28;5029618;28;20217;-80
2022/07/30 05:05:51;;;;;;;9.33;7.70;;;;;;;16.36;100.00;99240.59;5032016;28;20608;-80
2022/07/30 05:08:25;;;;;;;13.40;8.27;;;;;;;16.41;100.00;99240.22;5033222;28;20244;-80
2022/07/30 05:10:53;;;;;;;8.77;7.87;;;;;;;16.52;100.00;99232.94;5029877;28;20202;-80
2022/07/30 05:13:21;;;;;;;8.90;8.00;;;;;;;16.74;100.00;99233.75;5031057;28;20209;-79
2022/07/30 05:16:01;;;;;;;11.27;8.33;;;;;;;16.83;100.00;99219.56;5034158;28;20284;-79
2022/07/30 05:18:30;;;;;;;8.23;7.43;;;;;;;16.94;100.00;99223.97;5028824;28;20236;-80
2022/07/30 05:20:59;;;;;;;9.47;8.07;;;;;;;16.93;100.00;99225.78;5029850;28;20212;-80
2022/07/30 05:23:27;;;;;;;10.13;8.03;;;;;;;16.83;100.00;99215.06;5031241;28;20205;-80
2022/07/30 05:25:55;;;;;;;8.33;7.50;;;;;;;17.07;100.00;99219.19;5028780;28;20224;-80
2022/07/30 05:28:25;;;;;;;10.47;7.97;;;;;;;17.11;100.00;99232.19;5030303;28;20212;-80
2022/07/30 05:30:54;;;;;;;8.63;7.73;;;;;;;17.05;100.00;99226.50;5026926;28;20217;-79
2022/07/30 05:33:24;;;;;;;8.03;6.90;;;;;;;17.19;100.00;99231.50;5029515;28;20206;-80
2022/07/30 05:36:11;;;;;;;8.97;7.27;;;;;;;17.03;100.00;99226.66;5034451;28;20221;-80
2022/07/30 05:38:39;;;;;;;9.80;7.53;;;;;;;17.00;100.00;99229.63;5012579;28;20202;-80
2022/07/30 05:41:08;;;;;;;8.03;7.20;;;;;;;17.01;100.00;99234.00;5010245;28;20206;-80
2022/07/30 05:43:56;;;;;;;7.90;7.10;;;;;;;17.19;100.00;99236.00;4989574;28;20233;-80
2022/07/30 05:46:25;;;;;;;8.77;7.87;;;;;;;17.15;100.00;99232.72;5012398;28;20297;-80
2022/07/30 05:48:53;;;;;;;7.97;7.17;;;;;;;17.22;100.00;99233.03;5008300;28;20217;-80
2022/07/30 05:51:23;;;;;;;7.87;7.07;;;;;;;17.23;100.00;99240.94;5007555;28;20213;-79
2022/07/30 05:53:51;;;;;;;8.17;7.23;;;;;;;17.25;100.00;99233.59;5010432;28;20190;-80
2022/07/30 05:56:19;;;;;;;11.23;6.93;;;;;;;17.37;100.00;99229.84;4953063;28;20287;-80
2022/07/30 05:58:48;;;;;;;7.90;6.70;;;;;;;17.36;100.00;99225.44;4969457;28;20210;-80
2022/07/30 06:01:16;;;;;;;7.87;7.07;;;;;;;17.40;100.00;99231.38;4972599;28;20188;-80
2022/07/30 06:03:44;;;;;;;7.40;6.70;;;;;;;17.61;100.00;99229.41;4970706;28;20200;-80
2022/07/30 06:06:13;;;;;;;10.53;6.77;;;;;;;17.48;100.00;99230.69;4969644;28;20283;-80
2022/07/30 06:08:48;;;;;;;9.30;6.97;;;;;;;17.79;100.00;99226.91;4973224;28;20225;-80
2022/07/30 06:11:16;;;;;;;7.60;6.60;;;;;;;17.80;100.00;99225.91;4967964;28;20204;-80
2022/07/30 06:13:45;;;;;;;8.53;7.20;;;;;;;17.84;100.00;99227.28;4977866;28;20209;-80
2022/07/30 06:16:13;;;;;;;9.37;6.77;;;;;;;17.80;100.00;99227.75;5034061;28;20237;-80
2022/07/30 06:18:42;;;;;;;7.70;6.43;;;;;;;17.92;100.00;99222.06;5023689;28;20197;-80
2022/07/30 06:21:10;;;;;;;7.57;6.83;;;;;;;17.93;100.00;99226.44;5028616;28;20302;-80
2022/07/30 06:23:39;;;;;;;7.47;6.63;;;;;;;18.05;100.00;99223.59;5027918;28;20197;-80
2022/07/30 06:26:09;;;;;;;7.40;6.60;;;;;;;18.15;100.00;99238.69;5028412;28;20626;-80
2022/07/30 06:28:38;;;;;;;8.47;6.97;;;;;;;18.35;100.00;99235.97;5025102;28;20209;-80
2022/07/30 06:31:07;;;;;;;8.20;6.83;;;;;;;18.41;100.00;99243.41;5011883;28;20240;-80
2022/07/30 06:33:35;;;;;;;8.60;6.47;;;;;;;18.33;100.00;99240.59;5011497;28;20198;-80
2022/07/30 06:36:04;;;;;;;7.00;6.00;;;;;;;18.30;100.00;99237.22;5005868;28;20209;-80
2022/07/30 06:38:33;;;;;;;7.27;6.40;;;;;;;18.23;100.00;99236.13;5009035;28;20286;-79
2022/07/30 06:41:02;;;;;;;7.20;5.83;;;;;;;18.17;100.00;99225.16;5006071;28;20205;-80
2022/07/30 06:43:33;;;;;;;8.07;6.13;;;;;;;18.20;100.00;99225.69;5003917;28;20191;-80
2022/07/30 06:46:01;;;;;;;6.63;6.03;;;;;;;18.11;100.00;99223.88;4983595;28;20203;-80
2022/07/30 06:48:30;;;;;;;6.57;5.87;;;;;;;18.20;100.00;99232.88;4991951;28;20253;-80
2022/07/30 06:50:59;;;;;;;7.43;6.10;;;;;;;18.36;100.00;99230.47;4986704;28;20196;-79
2022/07/30 06:53:27;;;;;;;7.07;6.37;;;;;;;18.25;100.00;99234.16;4988781;28;20685;-80
2022/07/30 06:55:56;;;;;;;9.83;6.77;;;;;;;18.36;100.00;99233.13;4984613;28;20206;-80
2022/07/30 06:58:28;;;;;;;6.73;6.13;;;;;;;18.41;100.00;99233.53;4986919;28;20266;-80
2022/07/30 07:00:57;;;;;;;7.80;6.87;;;;;;;18.42;100.00;99229.84;4989419;28;20418;-80
2022/07/30 07:03:26;;;;;;;6.37;5.77;;;;;;;18.63;100.00;99229.66;5011407;28;20206;-80
2022/07/30 07:06:07;;;;;;;8.23;6.40;;;;;;;18.60;100.00;99232.63;5013033;28;20209;-80
2022/07/30 07:08:36;;;;;;;7.77;6.40;;;;;;;18.57;100.00;99228.41;5013296;28;20228;-80
2022/07/30 07:11:04;;;;;;;7.17;6.03;;;;;;;18.59;100.00;99225.56;5009385;28;20575;-80
2022/07/30 07:13:33;;;;;;;6.90;6.20;;;;;;;18.72;100.00;99227.94;5012212;28;20206;-80
2022/07/30 07:16:03;;;;;;;7.63;6.13;;;;;;;18.96;100.00;99220.19;5011833;28;20207;-80
2022/07/30 07:18:31;;;;;;;6.57;6.00;;;;;;;19.15;100.00;99221.91;4993917;28;20198;-80
2022/07/30 07:20:59;;;;;;;8.70;6.20;;;;;;;19.31;100.00;99223.94;5007004;28;20198;-80
2022/07/30 07:23:27;;;;;;;7.40;6.40;;;;;;;19.28;100.00;99219.69;5012161;28;20270;-80
2022/07/30 07:26:10;;;;;;;9.20;6.10;;;;;;;19.73;100.00;99218.81;5012324;28;20661;-80
2022/07/30 07:28:40;;;;;;;6.77;6.00;;;;;;;19.94;100.00;99215.78;5012591;28;20268;-79
2022/07/30 07:31:10;;;;;;;9.73;6.47;;;;;;;20.19;100.00;99220.34;5017108;28;20309;-80
2022/07/30 07:33:59;;;;;;;7.60;6.57;;;;;;;20.40;100.00;99214.59;5032970;28;20209;-80
2022/07/30 07:36:31;;;;;;;7.50;6.70;;;;;;;20.29;100.00;99209.50;5032720;28;20208;-80
2022/07/30 07:38:59;;;;;;;8.80;6.60;;;;;;;20.52;100.00;99207.13;5026709;28;20315;-80
2022/07/30 07:41:27;;;;;;;7.27;6.40;;;;;;;20.67;100.00;99200.13;5032852;28;20267;-79
2022/07/30 07:44:15;;;;;;;9.03;6.03;;;;;;;20.78;100.00;99199.00;5028425;28;20209;-80
2022/07/30 07:46:45;;;;;;;9.70;6.43;;;;;;;20.86;100.00;99194.50;5032720;28;20225;-80
2022/07/30 07:49:13;;;;;;;8.47;6.87;;;;;;;20.97;100.00;99193.34;5032595;28;20202;-79
2022/07/30 07:51:42;;;;;;;9.30;6.07;;;;;;;21.02;100.00;99192.84;5032591;28;20198;-79
2022/07/30 07:54:16;;;;;;;11.53;6.53;;;;;;;20.90;100.00;99186.09;5030580;28;20198;-79
2022/07/30 07:56:51;;;;;;;9.13;6.53;;;;;;;21.00;100.00;99189.47;5024718;28;20202;-79
2022/07/30 07:59:20;;;;;;;11.73;6.40;;;;;;;20.98;100.00;99194.19;5028747;28;20246;-79
2022/07/30 08:01:51;;;;;;;7.43;5.70;;;;;;;21.27;100.00;99191.94;5022810;28;20201;-80
2022/07/30 08:04:19;;;;;;;7.80;5.93;;;;;;;21.28;100.00;99190.94;5029722;28;20198;-79
2022/07/30 08:06:48;;;;;;;10.80;5.97;;;;;;;21.38;100.00;99190.78;5032512;28;20190;-80
2022/07/30 08:09:16;;;;;;;9.63;6.47;;;;;;;21.27;100.00;99185.72;5032339;28;20220;-80
2022/07/30 08:11:44;;;;;;;7.70;6.13;;;;;;;21.18;100.00;99192.91;5029986;28;20194;-80
2022/07/30 08:14:13;;;;;;;9.50;6.50;;;;;;;21.47;100.00;99194.31;5028273;28;20659;-79
2022/07/30 08:16:41;;;;;;;7.60;6.17;;;;;;;21.63;100.00;99192.50;5028333;28;20197;-80
2022/07/30 08:19:12;;;;;;;8.05;5.60;;;;;;;21.90;100.00;99185.06;5024768;28;20201;-79
2022/07/30 08:21:40;;;;;;;10.95;6.70;;;;;;;21.87;100.00;99191.63;5029177;28;20216;-79
2022/07/30 08:24:08;;;;;;;11.30;5.93;;;;;;;21.90;100.00;99190.44;5032248;28;20198;-79
2022/07/30 08:26:36;;;;;;;8.93;5.75;;;;;;;21.98;100.00;99187.75;5032367;28;20198;-79
2022/07/30 08:29:05;;;;;;;8.50;5.63;;;;;;;22.14;100.00;99190.47;5027951;28;20300;-79
2022/07/30 08:31:33;;;;;;;7.05;5.30;;;;;;;22.10;100.00;99189.13;5032109;28;20281;-79
2022/07/30 08:34:01;;;;;;;7.22;5.03;;;;;;;22.31;100.00;99182.34;5028370;28;20265;-79
2022/07/30 08:36:31;;;;;;;7.57;4.22;;;;;;;22.42;100.00;99187.38;5032987;28;20220;-80
2022/07/30 08:38:59;;;;;;;6.45;5.10;;;;;;;22.23;100.00;99194.00;5031962;28;20230;-79
2022/07/30 08:41:28;;;;;;;6.53;4.53;;;;;;;22.71;100.00;99190.31;5035748;28;20206;-80
2022/07/30 08:44:00;;;;;;;7.63;4.50;;;;;;;22.68;100.00;99196.06;5031348;28;20202;-79
2022/07/30 08:46:32;;;;;;;5.95;4.53;;;;;;;22.62;100.00;99190.50;5035765;28;20197;-79
2022/07/30 08:49:00;;;;;;;8.00;4.57;;;;;;;22.73;100.00;99188.25;5028828;28;20224;-79
2022/07/30 08:51:39;;;;;;;10.00;4.90;;;;;;;22.79;100.00;99187.56;5029834;28;20268;-80
2022/07/30 08:54:07;;;;;;;7.47;4.60;;;;;;;23.02;100.00;99194.91;5035490;28;20190;-79
2022/07/30 08:56:37;;;;;;;6.95;4.30;;;;;;;23.25;100.00;99192.25;5030690;28;20202;-79
2022/07/30 08:59:06;;;;;;;8.77;4.25;;;;;;;23.58;100.00;99191.00;5031249;28;20194;-80
2022/07/30 09:01:34;;;;;;;5.35;3.88;;;;;;;23.69;100.00;99196.03;5035318;28;20202;-79
2022/07/30 09:04:02;;;;;;;6.35;3.70;;;;;;;23.81;100.00;99195.59;5035344;28;20224;-80
2022/07/30 09:06:30;;;;;;;8.10;3.90;;;;;;;23.84;100.00;99197.94;5032165;28;20231;-79
2022/07/30 09:09:00;;;;;;;5.63;3.92;;;;;;;23.95;100.00;99203.75;5035144;28;20222;-80
2022/07/30 09:11:29;;;;;;;7.97;3.50;;;;;;;23.79;100.00;99198.47;5032165;28;20640;-80
2022/07/30 09:14:09;;;;;;;9.05;3.90;;;;;;;23.90;100.00;99203.44;5031043;28;20197;-79
2022/07/30 09:16:37;;;;;;;12.57;3.75;;;;;;;24.12;100.00;99209.00;5028704;28;20197;-79
2022/07/30 09:19:14;;;;;;;7.53;3.35;;;;;;;24.13;100.00;99213.41;5032064;28;20281;-80
2022/07/30 09:21:43;;;;;;;17.15;4.13;;;;;;;24.52;99.70;99202.38;5029460;28;20204;-80
2022/07/30 09:24:13;;;;;;;6.68;3.53;;;;;;;24.39;98.98;99200.28;5031327;28;20205;-79
2022/07/30 09:26:55;;;;;;;9.32;3.47;;;;;;;24.83;96.46;99192.16;5034808;28;20209;-80
2022/07/30 09:29:26;;;;;;;6.95;3.40;;;;;;;24.58;93.04;99190.78;4999654;28;20244;-79
2022/07/30 09:32:01;;;;;;;8.82;2.95;;;;;;;24.60;94.32;99191.41;5034585;28;20221;-79
2022/07/30 09:34:32;;;;;;;13.57;3.20;;;;;;;24.59;95.42;99191.63;5030212;28;20201;-79
2022/07/30 09:37:03;;;;;;;7.72;3.38;;;;;;;24.68;93.68;99194.03;5027056;28;20240;-79
2022/07/30 09:39:35;;;;;;;6.32;4.45;;;;;;;24.64;88.03;99192.75;5031834;28;20193;-79
2022/07/30 09:42:05;;;;;;;8.65;3.17;;;;;;;25.18;89.54;99188.84;4973553;28;20212;-79
2022/07/30 09:44:33;;;;;;;10.48;3.40;;;;;;;25.16;89.92;99189.03;4972316;28;20303;-80
2022/07/30 09:47:02;;;;;;;5.68;2.60;;;;;;;24.69;89.34;99179.47;4973088;28;20203;-79
2022/07/30 09:49:31;;;;;;;4.78;3.38;;;;;;;24.99;88.97;99192.97;4970142;28;20302;-79
2022/07/30 09:52:00;;;;;;;5.32;3.00;;;;;;;24.85;89.39;99186.56;4970380;28;20223;-80
2022/07/30 09:54:46;;;;;;;5.70;3.28;;;;;;;24.85;88.32;99186.56;4968467;28;20204;-80
2022/07/30 09:57:19;;;;;;;5.60;3.40;;;;;;;24.96;86.46;99177.94;4973379;28;20235;-80
2022/07/30 09:59:55;;;;;;;7.47;3.35;;;;;;;25.38;82.92;99184.47;4994941;28;20664;-80
2022/07/30 10:02:30;;;;;;;4.93;3.35;;;;;;;25.46;80.75;99181.63;5026832;28;20194;-79
2022/07/30 10:05:12;;;;;;;6.05;3.22;;;;;;;25.33;83.52;99190.50;5031587;28;20201;-80
2022/07/30 10:07:50;;;;;;;6.50;2.80;;;;;;;25.09;79.99;99191.69;5027416;28;20357;-79
2022/07/30 10:10:23;;;;;;;6.88;2.88;;;;;;;25.36;78.62;99187.38;5031236;28;20244;-80
2022/07/30 10:12:58;;;;;;;7.75;3.50;;;;;;;25.10;73.61;99185.25;5029038;28;20205;-79
2022/07/30 10:15:30;;;;;;;4.03;2.47;;;;;;;25.70;73.52;99191.31;5033963;28;20652;-80
2022/07/30 10:18:01;;;;;;;4.93;2.88;;;;;;;26.17;72.34;99187.94;5033995;28;20680;-80
2022/07/30 10:20:33;;;;;;;3.25;2.78;;;;;;;25.88;68.61;99191.69;5029415;28;20197;-79
2022/07/30 10:23:02;;;;;;;4.28;2.30;;;;;;;25.97;67.98;99186.97;5030608;28;20197;-80
2022/07/30 10:25:38;;;;;;;6.22;2.60;;;;;;;26.17;66.72;99187.94;5026240;28;20209;-81
2022/07/30 10:28:21;;;;;;;6.25;2.58;;;;;;;25.74;67.51;99181.75;5031584;28;20285;-80
2022/07/30 10:30:52;;;;;;;3.22;2.60;;;;;;;25.66;67.51;99179.97;5028312;28;20193;-80
2022/07/30 10:33:23;;;;;;;3.72;2.50;;;;;;;25.53;70.35;99190.69;5030291;28;20206;-80
2022/07/30 10:36:05;;;;;;;5.65;2.88;;;;;;;25.63;69.43;99187.66;5029352;28;20197;-80
2022/07/30 10:38:39;;;;;;;5.85;3.20;;;;;;;25.58;69.11;99184.72;5000160;28;20197;-80
2022/07/30 10:41:30;;;;;;;4.07;2.70;;;;;;;26.50;68.62;99187.34;5031033;28;20202;-80
2022/07/30 10:44:34;;;;;;;8.63;2.83;;;;;;;26.63;63.52;99181.97;5032041;28;20200;-80
2022/07/30 10:47:05;;;;;;;6.40;2.47;;;;;;;27.14;61.39;99178.06;5028956;28;20255;-80
2022/07/30 10:49:37;;;;;;;3.70;2.97;;;;;;;26.49;60.86;99172.09;5033275;28;20221;-80
2022/07/30 10:52:10;;;;;;;5.18;2.85;;;;;;;26.51;63.83;99168.13;5028291;28;20207;-80
2022/07/30 10:54:41;;;;;;;3.72;3.00;;;;;;;26.31;62.65;99175.28;5026852;28;20567;-80
2022/07/30 10:57:14;;;;;;;4.20;2.35;;;;;;;26.46;64.28;99173.34;5029707;28;20193;-80
2022/07/30 11:00:10;;;;;;;3.65;2.60;;;;;;;26.66;64.92;99178.03;5031539;28;20204;-80
2022/07/30 11:03:00;;;;;;;6.35;2.45;;;;;;;26.51;67.11;99164.56;5030636;28;20194;-80
2022/07/30 11:05:42;;;;;;;5.85;2.90;;;;;;;26.26;67.27;99166.91;5033001;28;20189;-80
2022/07/30 11:08:32;;;;;;;6.13;2.78;;;;;;;26.24;66.45;99168.97;5027718;28;20201;-80
2022/07/30 11:11:38;;;;;;;5.97;2.60;;;;;;;26.50;63.66;99171.06;5024730;28;20198;-80
2022/07/30 11:14:56;;;;;;;6.85;2.75;;;;;;;25.73;65.97;99160.22;5031987;28;20210;-80
2022/07/30 11:17:24;;;;;;;7.72;2.60;;;;;;;26.52;63.92;99166.25;5012229;28;20276;-80
2022/07/30 11:20:12;;;;;;;4.93;2.72;;;;;;;26.38;62.82;99159.91;5027466;28;20272;-80
2022/07/30 11:22:43;;;;;;;4.03;2.55;;;;;;;26.52;61.54;99163.53;5032914;28;20193;-80
2022/07/30 11:25:39;;;;;;;4.43;2.45;;;;;;;26.42;60.32;99171.22;5026489;28;20224;-80
2022/07/30 11:28:39;;;;;;;2.50;2.30;;;;;;;26.35;61.27;99164.88;5031678;28;20197;-80
2022/07/30 11:31:41;;;;;;;6.93;2.42;;;;;;;26.40;58.90;99165.13;5025608;28;20233;-80
2022/07/30 11:34:28;;;;;;;7.53;2.80;;;;;;;25.70;62.94;99164.19;4972218;28;20472;-80
2022/07/30 11:37:06;;;;;;;5.38;2.38;;;;;;;26.47;63.29;99166.03;5028986;28;20208;-80
2022/07/30 11:40:12;;;;;;;3.53;2.40;;;;;;;27.32;59.38;99164.72;5032533;28;20205;-80
2022/07/30 11:42:42;;;;;;;3.72;2.45;;;;;;;27.95;56.63;99162.50;5032378;28;20200;-81
2022/07/30 11:45:28;;;;;;;4.28;2.33;;;;;;;28.33;52.59;99159.97;5030119;28;20236;-80
2022/07/30 11:48:02;;;;;;;3.28;2.50;;;;;;;27.71;54.13;99163.97;5032920;28;20205;-80
2022/07/30 11:50:32;;;;;;;5.30;2.83;;;;;;;26.34;59.68;99164.00;5025027;28;20221;-80